sensor_id;sensor_type;location;lat;lon;timestamp;P1;durP1;ratioP1;P2;durP2;ratioP2
24761;SDS011;12865;51.934;10.330;2023-09-30T00:01:41;16.17;;;4.70;;
24761;SDS011;12865;51.934;10.330;2023-09-30T00:04:06;12.95;;;4.40;;
24761;SDS011;12865;51.934;10.330;2023-09-30T00:06:32;12.35;;;3.60;;
24761;SDS011;12865;51.934;10.330;2023-09-30T00:08:57;12.93;;;4.43;;
24761;SDS011;12865;51.934;10.330;2023-09-30T00:11:23;13.48;;;4.60;;
24761;SDS011;12865;51.934;10.330;2023-09-30T00:13:48;11.57;;;4.25;;
24761;SDS011;12865;51.934;10.330;2023-09-30T00:16:14;16.17;;;4.50;;
24761;SDS011;12865;51.934;10.330;2023-09-30T00:18:42;12.85;;;4.85;;
24761;SDS011;12865;51.934;10.330;2023-09-30T00:21:07;12.25;;;4.35;;
24761;SDS011;12865;51.934;10.330;2023-09-30T00:23:33;12.13;;;4.60;;
24761;SDS011;12865;51.934;10.330;2023-09-30T00:25:58;13.32;;;4.50;;
24761;SDS011;12865;51.934;10.330;2023-09-30T00:28:25;13.30;;;4.00;;
24761;SDS011;12865;51.934;10.330;2023-09-30T00:30:50;9.90;;;4.30;;
24761;SDS011;12865;51.934;10.330;2023-09-30T00:33:15;14.85;;;3.72;;
24761;SDS011;12865;51.934;10.330;2023-09-30T00:35:41;16.17;;;5.30;;
24761;SDS011;12865;51.934;10.330;2023-09-30T00:38:06;13.35;;;4.57;;
24761;SDS011;12865;51.934;10.330;2023-09-30T00:40:31;10.88;;;3.80;;
24761;SDS011;12865;51.934;10.330;2023-09-30T00:42:57;12.60;;;4.78;;
24761;SDS011;12865;51.934;10.330;2023-09-30T00:45:23;11.77;;;3.88;;
24761;SDS011;12865;51.934;10.330;2023-09-30T00:47:48;12.80;;;4.25;;
24761;SDS011;12865;51.934;10.330;2023-09-30T00:50:14;12.10;;;4.32;;
24761;SDS011;12865;51.934;10.330;2023-09-30T00:52:39;14.95;;;5.60;;
24761;SDS011;12865;51.934;10.330;2023-09-30T00:55:06;11.20;;;4.32;;
24761;SDS011;12865;51.934;10.330;2023-09-30T00:57:32;14.18;;;4.28;;
24761;SDS011;12865;51.934;10.330;2023-09-30T00:59:59;9.18;;;3.80;;
24761;SDS011;12865;51.934;10.330;2023-09-30T01:02:26;14.88;;;4.10;;
24761;SDS011;12865;51.934;10.330;2023-09-30T01:04:51;15.75;;;4.03;;
24761;SDS011;12865;51.934;10.330;2023-09-30T01:07:18;12.85;;;4.47;;
24761;SDS011;12865;51.934;10.330;2023-09-30T01:09:46;13.52;;;3.92;;
24761;SDS011;12865;51.934;10.330;2023-09-30T01:12:12;13.13;;;4.43;;
24761;SDS011;12865;51.934;10.330;2023-09-30T01:14:37;9.18;;;3.70;;
24761;SDS011;12865;51.934;10.330;2023-09-30T01:17:03;13.30;;;4.50;;
24761;SDS011;12865;51.934;10.330;2023-09-30T01:19:29;10.30;;;4.15;;
24761;SDS011;12865;51.934;10.330;2023-09-30T01:21:55;14.27;;;4.32;;
24761;SDS011;12865;51.934;10.330;2023-09-30T01:24:27;15.77;;;4.95;;
24761;SDS011;12865;51.934;10.330;2023-09-30T01:26:56;11.43;;;3.30;;
24761;SDS011;12865;51.934;10.330;2023-09-30T01:29:22;12.40;;;3.45;;
24761;SDS011;12865;51.934;10.330;2023-09-30T01:31:48;15.07;;;4.30;;
24761;SDS011;12865;51.934;10.330;2023-09-30T01:34:14;11.93;;;4.07;;
24761;SDS011;12865;51.934;10.330;2023-09-30T01:36:41;11.80;;;3.78;;
24761;SDS011;12865;51.934;10.330;2023-09-30T01:39:09;13.40;;;3.83;;
24761;SDS011;12865;51.934;10.330;2023-09-30T01:41:36;15.73;;;4.97;;
24761;SDS011;12865;51.934;10.330;2023-09-30T01:44:02;9.38;;;3.90;;
24761;SDS011;12865;51.934;10.330;2023-09-30T01:46:28;7.68;;;3.60;;
24761;SDS011;12865;51.934;10.330;2023-09-30T01:48:53;13.48;;;4.35;;
24761;SDS011;12865;51.934;10.330;2023-09-30T01:51:18;13.85;;;4.32;;
24761;SDS011;12865;51.934;10.330;2023-09-30T01:53:43;11.18;;;4.22;;
24761;SDS011;12865;51.934;10.330;2023-09-30T01:56:09;12.30;;;5.00;;
24761;SDS011;12865;51.934;10.330;2023-09-30T01:58:34;13.98;;;4.32;;
24761;SDS011;12865;51.934;10.330;2023-09-30T02:01:03;11.90;;;3.60;;
24761;SDS011;12865;51.934;10.330;2023-09-30T02:03:29;10.75;;;3.30;;
24761;SDS011;12865;51.934;10.330;2023-09-30T02:05:56;9.32;;;3.65;;
24761;SDS011;12865;51.934;10.330;2023-09-30T02:08:22;10.75;;;4.15;;
24761;SDS011;12865;51.934;10.330;2023-09-30T02:10:47;11.48;;;3.88;;
24761;SDS011;12865;51.934;10.330;2023-09-30T02:13:12;16.27;;;3.97;;
24761;SDS011;12865;51.934;10.330;2023-09-30T02:15:41;14.38;;;3.83;;
24761;SDS011;12865;51.934;10.330;2023-09-30T02:18:06;15.20;;;4.65;;
24761;SDS011;12865;51.934;10.330;2023-09-30T02:20:32;15.65;;;4.53;;
24761;SDS011;12865;51.934;10.330;2023-09-30T02:22:57;15.75;;;3.90;;
24761;SDS011;12865;51.934;10.330;2023-09-30T02:25:24;15.00;;;4.10;;
24761;SDS011;12865;51.934;10.330;2023-09-30T02:27:50;14.50;;;4.50;;
24761;SDS011;12865;51.934;10.330;2023-09-30T02:30:15;12.15;;;4.38;;
24761;SDS011;12865;51.934;10.330;2023-09-30T02:32:41;16.85;;;4.70;;
24761;SDS011;12865;51.934;10.330;2023-09-30T02:35:07;11.38;;;4.70;;
24761;SDS011;12865;51.934;10.330;2023-09-30T02:37:36;16.03;;;4.73;;
24761;SDS011;12865;51.934;10.330;2023-09-30T02:40:05;14.13;;;4.55;;
24761;SDS011;12865;51.934;10.330;2023-09-30T02:42:34;16.98;;;5.28;;
24761;SDS011;12865;51.934;10.330;2023-09-30T02:45:04;16.02;;;4.63;;
24761;SDS011;12865;51.934;10.330;2023-09-30T02:47:30;16.35;;;5.20;;
24761;SDS011;12865;51.934;10.330;2023-09-30T02:49:56;11.68;;;4.22;;
24761;SDS011;12865;51.934;10.330;2023-09-30T02:52:26;12.27;;;3.97;;
24761;SDS011;12865;51.934;10.330;2023-09-30T02:54:53;12.13;;;4.10;;
24761;SDS011;12865;51.934;10.330;2023-09-30T02:57:19;16.70;;;5.05;;
24761;SDS011;12865;51.934;10.330;2023-09-30T02:59:44;15.15;;;4.78;;
24761;SDS011;12865;51.934;10.330;2023-09-30T03:02:10;12.27;;;4.78;;
24761;SDS011;12865;51.934;10.330;2023-09-30T03:04:40;15.27;;;5.80;;
24761;SDS011;12865;51.934;10.330;2023-09-30T03:07:06;15.95;;;5.28;;
24761;SDS011;12865;51.934;10.330;2023-09-30T03:09:32;12.50;;;4.60;;
24761;SDS011;12865;51.934;10.330;2023-09-30T03:11:57;13.48;;;5.00;;
24761;SDS011;12865;51.934;10.330;2023-09-30T03:14:24;13.98;;;5.85;;
24761;SDS011;12865;51.934;10.330;2023-09-30T03:16:50;16.92;;;5.90;;
24761;SDS011;12865;51.934;10.330;2023-09-30T03:19:15;13.90;;;4.78;;
24761;SDS011;12865;51.934;10.330;2023-09-30T03:21:41;9.95;;;4.72;;
24761;SDS011;12865;51.934;10.330;2023-09-30T03:24:07;12.55;;;4.90;;
24761;SDS011;12865;51.934;10.330;2023-09-30T03:26:33;14.23;;;5.28;;
24761;SDS011;12865;51.934;10.330;2023-09-30T03:28:59;18.25;;;5.20;;
24761;SDS011;12865;51.934;10.330;2023-09-30T03:31:25;11.85;;;4.53;;
24761;SDS011;12865;51.934;10.330;2023-09-30T03:33:50;13.27;;;5.03;;
24761;SDS011;12865;51.934;10.330;2023-09-30T03:36:19;16.23;;;5.00;;
24761;SDS011;12865;51.934;10.330;2023-09-30T03:38:50;17.13;;;4.80;;
24761;SDS011;12865;51.934;10.330;2023-09-30T03:41:20;13.80;;;5.28;;
24761;SDS011;12865;51.934;10.330;2023-09-30T03:43:46;16.17;;;4.78;;
24761;SDS011;12865;51.934;10.330;2023-09-30T03:46:12;13.23;;;4.60;;
24761;SDS011;12865;51.934;10.330;2023-09-30T03:48:38;14.18;;;4.93;;
24761;SDS011;12865;51.934;10.330;2023-09-30T03:53:39;12.43;;;4.88;;
24761;SDS011;12865;51.934;10.330;2023-09-30T03:58:33;14.40;;;5.13;;
24761;SDS011;12865;51.934;10.330;2023-09-30T04:00:59;11.30;;;4.80;;
24761;SDS011;12865;51.934;10.330;2023-09-30T04:03:25;13.27;;;4.72;;
24761;SDS011;12865;51.934;10.330;2023-09-30T04:05:52;14.27;;;4.70;;
24761;SDS011;12865;51.934;10.330;2023-09-30T04:08:18;17.63;;;4.97;;
24761;SDS011;12865;51.934;10.330;2023-09-30T04:10:43;14.50;;;4.90;;
24761;SDS011;12865;51.934;10.330;2023-09-30T04:13:09;8.75;;;4.18;;
24761;SDS011;12865;51.934;10.330;2023-09-30T04:15:34;14.07;;;5.10;;
24761;SDS011;12865;51.934;10.330;2023-09-30T04:18:00;13.45;;;5.55;;
24761;SDS011;12865;51.934;10.330;2023-09-30T04:20:25;12.68;;;4.80;;
24761;SDS011;12865;51.934;10.330;2023-09-30T04:22:52;14.85;;;4.88;;
24761;SDS011;12865;51.934;10.330;2023-09-30T04:25:22;16.98;;;5.03;;
24761;SDS011;12865;51.934;10.330;2023-09-30T04:27:49;16.45;;;5.45;;
24761;SDS011;12865;51.934;10.330;2023-09-30T04:30:15;15.77;;;5.03;;
24761;SDS011;12865;51.934;10.330;2023-09-30T04:32:41;13.02;;;4.25;;
24761;SDS011;12865;51.934;10.330;2023-09-30T04:35:06;18.45;;;4.85;;
24761;SDS011;12865;51.934;10.330;2023-09-30T04:37:36;11.65;;;5.65;;
24761;SDS011;12865;51.934;10.330;2023-09-30T04:40:05;19.35;;;6.43;;
24761;SDS011;12865;51.934;10.330;2023-09-30T04:42:33;12.15;;;4.82;;
24761;SDS011;12865;51.934;10.330;2023-09-30T04:45:02;13.63;;;5.13;;
24761;SDS011;12865;51.934;10.330;2023-09-30T04:47:28;16.75;;;5.07;;
24761;SDS011;12865;51.934;10.330;2023-09-30T04:49:54;13.07;;;4.50;;
24761;SDS011;12865;51.934;10.330;2023-09-30T04:52:19;12.10;;;5.72;;
24761;SDS011;12865;51.934;10.330;2023-09-30T04:54:45;14.02;;;5.20;;
24761;SDS011;12865;51.934;10.330;2023-09-30T04:57:11;17.45;;;6.10;;
24761;SDS011;12865;51.934;10.330;2023-09-30T04:59:36;14.88;;;5.05;;
24761;SDS011;12865;51.934;10.330;2023-09-30T05:02:02;11.23;;;5.20;;
24761;SDS011;12865;51.934;10.330;2023-09-30T05:04:28;14.95;;;5.07;;
24761;SDS011;12865;51.934;10.330;2023-09-30T05:06:54;15.85;;;4.60;;
24761;SDS011;12865;51.934;10.330;2023-09-30T05:09:20;15.00;;;5.15;;
24761;SDS011;12865;51.934;10.330;2023-09-30T05:11:45;13.77;;;5.45;;
24761;SDS011;12865;51.934;10.330;2023-09-30T05:14:11;16.25;;;5.90;;
24761;SDS011;12865;51.934;10.330;2023-09-30T05:16:36;11.27;;;5.03;;
24761;SDS011;12865;51.934;10.330;2023-09-30T05:19:02;9.88;;;5.10;;
24761;SDS011;12865;51.934;10.330;2023-09-30T05:21:29;15.32;;;5.57;;
24761;SDS011;12865;51.934;10.330;2023-09-30T05:23:55;15.98;;;5.43;;
24761;SDS011;12865;51.934;10.330;2023-09-30T05:26:21;13.27;;;5.07;;
24761;SDS011;12865;51.934;10.330;2023-09-30T05:28:46;17.23;;;7.22;;
24761;SDS011;12865;51.934;10.330;2023-09-30T05:31:12;14.10;;;6.32;;
24761;SDS011;12865;51.934;10.330;2023-09-30T05:33:37;15.15;;;6.45;;
24761;SDS011;12865;51.934;10.330;2023-09-30T05:36:02;13.90;;;5.38;;
24761;SDS011;12865;51.934;10.330;2023-09-30T05:38:29;16.85;;;6.18;;
24761;SDS011;12865;51.934;10.330;2023-09-30T05:40:56;15.30;;;5.35;;
24761;SDS011;12865;51.934;10.330;2023-09-30T05:43:23;12.65;;;4.40;;
24761;SDS011;12865;51.934;10.330;2023-09-30T05:45:49;14.60;;;4.63;;
24761;SDS011;12865;51.934;10.330;2023-09-30T05:48:16;13.48;;;4.82;;
24761;SDS011;12865;51.934;10.330;2023-09-30T05:50:41;11.35;;;5.20;;
24761;SDS011;12865;51.934;10.330;2023-09-30T05:53:08;15.52;;;4.60;;
24761;SDS011;12865;51.934;10.330;2023-09-30T05:55:35;16.25;;;5.00;;
24761;SDS011;12865;51.934;10.330;2023-09-30T05:58:02;13.25;;;5.22;;
24761;SDS011;12865;51.934;10.330;2023-09-30T06:00:27;13.90;;;5.13;;
24761;SDS011;12865;51.934;10.330;2023-09-30T06:02:56;15.85;;;4.95;;
24761;SDS011;12865;51.934;10.330;2023-09-30T06:05:22;10.57;;;4.97;;
24761;SDS011;12865;51.934;10.330;2023-09-30T06:07:48;12.75;;;4.63;;
24761;SDS011;12865;51.934;10.330;2023-09-30T06:10:14;15.23;;;5.68;;
24761;SDS011;12865;51.934;10.330;2023-09-30T06:12:46;14.93;;;5.47;;
24761;SDS011;12865;51.934;10.330;2023-09-30T06:15:13;15.98;;;6.40;;
24761;SDS011;12865;51.934;10.330;2023-09-30T06:17:46;14.32;;;6.75;;
24761;SDS011;12865;51.934;10.330;2023-09-30T06:20:12;14.82;;;6.40;;
24761;SDS011;12865;51.934;10.330;2023-09-30T06:22:43;15.82;;;5.63;;
24761;SDS011;12865;51.934;10.330;2023-09-30T06:25:10;21.33;;;6.00;;
24761;SDS011;12865;51.934;10.330;2023-09-30T06:27:37;13.20;;;6.40;;
24761;SDS011;12865;51.934;10.330;2023-09-30T06:30:03;14.40;;;5.25;;
24761;SDS011;12865;51.934;10.330;2023-09-30T06:32:30;14.15;;;6.00;;
24761;SDS011;12865;51.934;10.330;2023-09-30T06:34:55;15.43;;;6.05;;
24761;SDS011;12865;51.934;10.330;2023-09-30T06:37:21;14.65;;;6.43;;
24761;SDS011;12865;51.934;10.330;2023-09-30T06:39:46;11.95;;;5.85;;
24761;SDS011;12865;51.934;10.330;2023-09-30T06:42:13;12.77;;;6.35;;
24761;SDS011;12865;51.934;10.330;2023-09-30T06:44:38;18.20;;;5.90;;
24761;SDS011;12865;51.934;10.330;2023-09-30T06:47:03;13.63;;;5.80;;
24761;SDS011;12865;51.934;10.330;2023-09-30T06:49:29;13.65;;;5.63;;
24761;SDS011;12865;51.934;10.330;2023-09-30T06:51:55;13.32;;;5.93;;
24761;SDS011;12865;51.934;10.330;2023-09-30T06:54:21;15.13;;;5.90;;
24761;SDS011;12865;51.934;10.330;2023-09-30T06:56:46;15.25;;;6.22;;
24761;SDS011;12865;51.934;10.330;2023-09-30T06:59:11;15.13;;;6.47;;
24761;SDS011;12865;51.934;10.330;2023-09-30T07:01:37;14.95;;;6.20;;
24761;SDS011;12865;51.934;10.330;2023-09-30T07:04:02;13.32;;;6.47;;
24761;SDS011;12865;51.934;10.330;2023-09-30T07:06:28;12.82;;;6.35;;
24761;SDS011;12865;51.934;10.330;2023-09-30T07:08:53;14.40;;;6.47;;
24761;SDS011;12865;51.934;10.330;2023-09-30T07:11:29;12.18;;;6.45;;
24761;SDS011;12865;51.934;10.330;2023-09-30T07:13:55;17.80;;;6.20;;
24761;SDS011;12865;51.934;10.330;2023-09-30T07:16:21;17.50;;;6.07;;
24761;SDS011;12865;51.934;10.330;2023-09-30T07:18:46;19.83;;;5.78;;
24761;SDS011;12865;51.934;10.330;2023-09-30T07:21:12;21.98;;;6.20;;
24761;SDS011;12865;51.934;10.330;2023-09-30T07:23:38;18.65;;;5.65;;
24761;SDS011;12865;51.934;10.330;2023-09-30T07:26:03;17.65;;;6.15;;
24761;SDS011;12865;51.934;10.330;2023-09-30T07:28:29;19.17;;;6.50;;
24761;SDS011;12865;51.934;10.330;2023-09-30T07:30:55;15.32;;;6.05;;
24761;SDS011;12865;51.934;10.330;2023-09-30T07:33:20;16.88;;;4.63;;
24761;SDS011;12865;51.934;10.330;2023-09-30T07:35:46;17.90;;;5.60;;
24761;SDS011;12865;51.934;10.330;2023-09-30T07:38:11;19.17;;;7.25;;
24761;SDS011;12865;51.934;10.330;2023-09-30T07:40:36;15.38;;;5.38;;
24761;SDS011;12865;51.934;10.330;2023-09-30T07:43:02;13.55;;;5.60;;
24761;SDS011;12865;51.934;10.330;2023-09-30T07:45:27;13.27;;;5.00;;
24761;SDS011;12865;51.934;10.330;2023-09-30T07:47:53;14.73;;;4.65;;
24761;SDS011;12865;51.934;10.330;2023-09-30T07:50:18;15.45;;;4.78;;
24761;SDS011;12865;51.934;10.330;2023-09-30T07:52:44;16.98;;;4.45;;
24761;SDS011;12865;51.934;10.330;2023-09-30T07:55:10;12.10;;;4.95;;
24761;SDS011;12865;51.934;10.330;2023-09-30T07:57:35;16.33;;;4.65;;
24761;SDS011;12865;51.934;10.330;2023-09-30T08:00:02;19.25;;;4.88;;
24761;SDS011;12865;51.934;10.330;2023-09-30T08:02:33;14.85;;;4.25;;
24761;SDS011;12865;51.934;10.330;2023-09-30T08:04:58;10.23;;;3.53;;
24761;SDS011;12865;51.934;10.330;2023-09-30T08:07:25;14.43;;;4.20;;
24761;SDS011;12865;51.934;10.330;2023-09-30T08:09:50;15.60;;;4.75;;
24761;SDS011;12865;51.934;10.330;2023-09-30T08:12:16;12.57;;;3.97;;
24761;SDS011;12865;51.934;10.330;2023-09-30T08:14:41;13.52;;;4.63;;
24761;SDS011;12865;51.934;10.330;2023-09-30T08:17:09;13.93;;;4.43;;
24761;SDS011;12865;51.934;10.330;2023-09-30T08:19:35;15.77;;;4.82;;
24761;SDS011;12865;51.934;10.330;2023-09-30T08:22:01;12.65;;;4.30;;
24761;SDS011;12865;51.934;10.330;2023-09-30T08:24:28;15.32;;;3.50;;
24761;SDS011;12865;51.934;10.330;2023-09-30T08:26:53;15.68;;;4.57;;
24761;SDS011;12865;51.934;10.330;2023-09-30T08:29:20;13.65;;;3.85;;
24761;SDS011;12865;51.934;10.330;2023-09-30T08:31:46;10.70;;;3.33;;
24761;SDS011;12865;51.934;10.330;2023-09-30T08:34:11;10.52;;;4.10;;
24761;SDS011;12865;51.934;10.330;2023-09-30T08:36:39;14.02;;;3.88;;
24761;SDS011;12865;51.934;10.330;2023-09-30T08:39:04;13.25;;;4.30;;
24761;SDS011;12865;51.934;10.330;2023-09-30T08:41:31;11.88;;;3.58;;
24761;SDS011;12865;51.934;10.330;2023-09-30T08:43:59;9.98;;;3.10;;
24761;SDS011;12865;51.934;10.330;2023-09-30T08:46:31;10.35;;;3.58;;
24761;SDS011;12865;51.934;10.330;2023-09-30T08:49:01;13.88;;;3.78;;
24761;SDS011;12865;51.934;10.330;2023-09-30T08:51:28;11.13;;;3.45;;
24761;SDS011;12865;51.934;10.330;2023-09-30T08:53:55;11.02;;;3.65;;
24761;SDS011;12865;51.934;10.330;2023-09-30T08:56:29;11.05;;;3.42;;
24761;SDS011;12865;51.934;10.330;2023-09-30T08:58:56;10.80;;;3.28;;
24761;SDS011;12865;51.934;10.330;2023-09-30T09:01:24;16.38;;;3.47;;
24761;SDS011;12865;51.934;10.330;2023-09-30T09:03:53;10.63;;;3.55;;
24761;SDS011;12865;51.934;10.330;2023-09-30T09:06:20;8.07;;;3.22;;
24761;SDS011;12865;51.934;10.330;2023-09-30T09:08:46;10.57;;;3.75;;
24761;SDS011;12865;51.934;10.330;2023-09-30T09:11:12;14.45;;;3.85;;
24761;SDS011;12865;51.934;10.330;2023-09-30T09:13:52;8.25;;;3.38;;
24761;SDS011;12865;51.934;10.330;2023-09-30T09:16:20;15.98;;;3.80;;
24761;SDS011;12865;51.934;10.330;2023-09-30T09:18:47;10.77;;;3.92;;
24761;SDS011;12865;51.934;10.330;2023-09-30T09:21:14;8.80;;;3.30;;
24761;SDS011;12865;51.934;10.330;2023-09-30T09:23:46;12.55;;;3.55;;
24761;SDS011;12865;51.934;10.330;2023-09-30T09:26:28;13.68;;;3.60;;
24761;SDS011;12865;51.934;10.330;2023-09-30T09:28:58;12.20;;;3.30;;
24761;SDS011;12865;51.934;10.330;2023-09-30T09:31:25;11.55;;;3.78;;
24761;SDS011;12865;51.934;10.330;2023-09-30T09:33:52;13.38;;;3.60;;
24761;SDS011;12865;51.934;10.330;2023-09-30T09:36:18;10.45;;;3.28;;
24761;SDS011;12865;51.934;10.330;2023-09-30T09:38:45;9.35;;;3.50;;
24761;SDS011;12865;51.934;10.330;2023-09-30T09:41:15;11.13;;;3.42;;
24761;SDS011;12865;51.934;10.330;2023-09-30T09:43:42;12.23;;;3.50;;
24761;SDS011;12865;51.934;10.330;2023-09-30T09:46:09;11.70;;;4.10;;
24761;SDS011;12865;51.934;10.330;2023-09-30T09:48:35;9.27;;;3.05;;
24761;SDS011;12865;51.934;10.330;2023-09-30T09:51:02;17.85;;;4.53;;
24761;SDS011;12865;51.934;10.330;2023-09-30T09:53:34;11.57;;;3.60;;
24761;SDS011;12865;51.934;10.330;2023-09-30T09:56:01;12.48;;;3.60;;
24761;SDS011;12865;51.934;10.330;2023-09-30T09:58:29;11.95;;;3.58;;
24761;SDS011;12865;51.934;10.330;2023-09-30T10:00:58;8.90;;;3.15;;
24761;SDS011;12865;51.934;10.330;2023-09-30T10:03:26;8.85;;;3.83;;
24761;SDS011;12865;51.934;10.330;2023-09-30T10:05:52;9.88;;;3.17;;
24761;SDS011;12865;51.934;10.330;2023-09-30T10:08:19;8.98;;;3.08;;
24761;SDS011;12865;51.934;10.330;2023-09-30T10:10:46;12.85;;;3.53;;
24761;SDS011;12865;51.934;10.330;2023-09-30T10:19:10;10.82;;;3.55;;
24761;SDS011;12865;51.934;10.330;2023-09-30T10:21:38;10.93;;;4.50;;
24761;SDS011;12865;51.934;10.330;2023-09-30T10:29:57;13.02;;;4.13;;
24761;SDS011;12865;51.934;10.330;2023-09-30T10:33:10;8.10;;;2.85;;
24761;SDS011;12865;51.934;10.330;2023-09-30T10:40:47;11.25;;;3.10;;
24761;SDS011;12865;51.934;10.330;2023-09-30T10:46:01;10.75;;;2.80;;
24761;SDS011;12865;51.934;10.330;2023-09-30T10:51:12;10.80;;;3.40;;
24761;SDS011;12865;51.934;10.330;2023-09-30T10:53:46;8.75;;;2.75;;
24761;SDS011;12865;51.934;10.330;2023-09-30T10:56:13;7.72;;;2.78;;
24761;SDS011;12865;51.934;10.330;2023-09-30T11:01:09;10.32;;;3.38;;
24761;SDS011;12865;51.934;10.330;2023-09-30T11:03:35;12.93;;;3.55;;
24761;SDS011;12865;51.934;10.330;2023-09-30T11:06:01;9.52;;;3.20;;
24761;SDS011;12865;51.934;10.330;2023-09-30T11:08:29;9.57;;;3.13;;
24761;SDS011;12865;51.934;10.330;2023-09-30T11:10:55;8.88;;;3.53;;
24761;SDS011;12865;51.934;10.330;2023-09-30T11:13:21;11.85;;;3.42;;
24761;SDS011;12865;51.934;10.330;2023-09-30T11:15:48;11.25;;;4.13;;
24761;SDS011;12865;51.934;10.330;2023-09-30T11:18:25;14.23;;;3.35;;
24761;SDS011;12865;51.934;10.330;2023-09-30T11:20:50;10.02;;;3.30;;
24761;SDS011;12865;51.934;10.330;2023-09-30T11:23:29;7.72;;;2.83;;
24761;SDS011;12865;51.934;10.330;2023-09-30T11:25:55;10.43;;;3.22;;
24761;SDS011;12865;51.934;10.330;2023-09-30T11:28:22;9.90;;;3.10;;
24761;SDS011;12865;51.934;10.330;2023-09-30T11:31:00;9.10;;;3.58;;
24761;SDS011;12865;51.934;10.330;2023-09-30T11:33:31;9.07;;;3.33;;
24761;SDS011;12865;51.934;10.330;2023-09-30T11:36:02;12.45;;;3.08;;
24761;SDS011;12865;51.934;10.330;2023-09-30T11:38:30;7.50;;;3.10;;
24761;SDS011;12865;51.934;10.330;2023-09-30T11:43:34;7.53;;;3.35;;
24761;SDS011;12865;51.934;10.330;2023-09-30T11:46:07;7.60;;;3.50;;
24761;SDS011;12865;51.934;10.330;2023-09-30T11:48:34;8.20;;;2.85;;
24761;SDS011;12865;51.934;10.330;2023-09-30T11:51:03;10.18;;;3.60;;
24761;SDS011;12865;51.934;10.330;2023-09-30T11:53:34;8.13;;;3.25;;
24761;SDS011;12865;51.934;10.330;2023-09-30T11:56:00;9.20;;;3.15;;
24761;SDS011;12865;51.934;10.330;2023-09-30T11:58:28;11.90;;;3.88;;
24761;SDS011;12865;51.934;10.330;2023-09-30T12:00:54;10.73;;;3.85;;
24761;SDS011;12865;51.934;10.330;2023-09-30T12:03:20;9.95;;;3.38;;
24761;SDS011;12865;51.934;10.330;2023-09-30T12:05:46;7.60;;;3.08;;
24761;SDS011;12865;51.934;10.330;2023-09-30T12:08:12;7.63;;;3.45;;
24761;SDS011;12865;51.934;10.330;2023-09-30T12:10:39;10.05;;;3.10;;
24761;SDS011;12865;51.934;10.330;2023-09-30T12:13:05;10.23;;;3.72;;
24761;SDS011;12865;51.934;10.330;2023-09-30T12:15:30;6.07;;;2.70;;
24761;SDS011;12865;51.934;10.330;2023-09-30T12:17:56;11.25;;;3.40;;
24761;SDS011;12865;51.934;10.330;2023-09-30T12:20:21;7.78;;;2.92;;
24761;SDS011;12865;51.934;10.330;2023-09-30T12:22:47;9.02;;;3.28;;
24761;SDS011;12865;51.934;10.330;2023-09-30T12:25:12;9.73;;;3.50;;
24761;SDS011;12865;51.934;10.330;2023-09-30T12:27:38;8.40;;;3.17;;
24761;SDS011;12865;51.934;10.330;2023-09-30T12:30:05;8.15;;;3.05;;
24761;SDS011;12865;51.934;10.330;2023-09-30T12:32:31;6.40;;;2.72;;
24761;SDS011;12865;51.934;10.330;2023-09-30T12:34:57;7.55;;;2.97;;
24761;SDS011;12865;51.934;10.330;2023-09-30T12:37:22;7.55;;;2.88;;
24761;SDS011;12865;51.934;10.330;2023-09-30T12:39:47;8.35;;;3.00;;
24761;SDS011;12865;51.934;10.330;2023-09-30T12:42:13;7.10;;;2.60;;
24761;SDS011;12865;51.934;10.330;2023-09-30T12:44:39;6.25;;;2.55;;
24761;SDS011;12865;51.934;10.330;2023-09-30T12:47:05;6.05;;;3.25;;
24761;SDS011;12865;51.934;10.330;2023-09-30T12:49:30;5.88;;;2.80;;
24761;SDS011;12865;51.934;10.330;2023-09-30T12:51:56;4.32;;;2.70;;
24761;SDS011;12865;51.934;10.330;2023-09-30T12:54:23;8.25;;;3.00;;
24761;SDS011;12865;51.934;10.330;2023-09-30T12:56:51;8.77;;;2.88;;
24761;SDS011;12865;51.934;10.330;2023-09-30T12:59:17;4.70;;;2.67;;
24761;SDS011;12865;51.934;10.330;2023-09-30T13:01:43;8.15;;;3.20;;
24761;SDS011;12865;51.934;10.330;2023-09-30T13:04:09;6.10;;;2.90;;
24761;SDS011;12865;51.934;10.330;2023-09-30T13:06:34;7.60;;;3.17;;
24761;SDS011;12865;51.934;10.330;2023-09-30T13:09:00;8.23;;;3.30;;
24761;SDS011;12865;51.934;10.330;2023-09-30T13:11:33;9.20;;;3.00;;
24761;SDS011;12865;51.934;10.330;2023-09-30T13:13:59;5.63;;;3.08;;
24761;SDS011;12865;51.934;10.330;2023-09-30T13:16:24;9.13;;;3.00;;
24761;SDS011;12865;51.934;10.330;2023-09-30T13:18:50;10.10;;;2.95;;
24761;SDS011;12865;51.934;10.330;2023-09-30T13:21:17;6.43;;;3.13;;
24761;SDS011;12865;51.934;10.330;2023-09-30T13:23:43;7.47;;;2.67;;
24761;SDS011;12865;51.934;10.330;2023-09-30T13:26:08;5.45;;;3.13;;
24761;SDS011;12865;51.934;10.330;2023-09-30T13:28:34;6.07;;;2.92;;
24761;SDS011;12865;51.934;10.330;2023-09-30T13:30:59;7.95;;;3.05;;
24761;SDS011;12865;51.934;10.330;2023-09-30T13:33:25;6.03;;;2.58;;
24761;SDS011;12865;51.934;10.330;2023-09-30T13:35:50;7.38;;;3.28;;
24761;SDS011;12865;51.934;10.330;2023-09-30T13:38:15;9.23;;;3.10;;
24761;SDS011;12865;51.934;10.330;2023-09-30T13:40:41;7.32;;;3.38;;
24761;SDS011;12865;51.934;10.330;2023-09-30T13:43:07;7.32;;;2.70;;
24761;SDS011;12865;51.934;10.330;2023-09-30T13:45:32;7.72;;;3.20;;
24761;SDS011;12865;51.934;10.330;2023-09-30T13:47:59;4.93;;;2.72;;
24761;SDS011;12865;51.934;10.330;2023-09-30T13:50:24;8.82;;;3.03;;
24761;SDS011;12865;51.934;10.330;2023-09-30T13:52:50;8.23;;;3.17;;
24761;SDS011;12865;51.934;10.330;2023-09-30T13:55:15;5.65;;;2.97;;
24761;SDS011;12865;51.934;10.330;2023-09-30T13:57:44;8.73;;;3.07;;
24761;SDS011;12865;51.934;10.330;2023-09-30T14:00:11;7.43;;;3.30;;
24761;SDS011;12865;51.934;10.330;2023-09-30T14:02:37;7.85;;;3.38;;
24761;SDS011;12865;51.934;10.330;2023-09-30T14:05:03;8.18;;;3.50;;
24761;SDS011;12865;51.934;10.330;2023-09-30T14:07:29;8.10;;;3.50;;
24761;SDS011;12865;51.934;10.330;2023-09-30T14:09:55;8.38;;;3.60;;
24761;SDS011;12865;51.934;10.330;2023-09-30T14:12:20;7.63;;;3.45;;
24761;SDS011;12865;51.934;10.330;2023-09-30T14:14:45;7.75;;;3.15;;
24761;SDS011;12865;51.934;10.330;2023-09-30T14:17:11;8.23;;;3.53;;
24761;SDS011;12865;51.934;10.330;2023-09-30T14:19:37;7.60;;;2.78;;
24761;SDS011;12865;51.934;10.330;2023-09-30T14:22:03;6.93;;;2.65;;
24761;SDS011;12865;51.934;10.330;2023-09-30T14:24:30;3.97;;;2.35;;
24761;SDS011;12865;51.934;10.330;2023-09-30T14:26:59;7.43;;;3.30;;
24761;SDS011;12865;51.934;10.330;2023-09-30T14:29:25;7.35;;;3.25;;
24761;SDS011;12865;51.934;10.330;2023-09-30T14:31:50;6.57;;;2.80;;
24761;SDS011;12865;51.934;10.330;2023-09-30T14:34:16;6.80;;;3.00;;
24761;SDS011;12865;51.934;10.330;2023-09-30T14:36:42;8.93;;;2.70;;
24761;SDS011;12865;51.934;10.330;2023-09-30T14:39:08;6.97;;;2.83;;
24761;SDS011;12865;51.934;10.330;2023-09-30T14:41:34;8.70;;;2.90;;
24761;SDS011;12865;51.934;10.330;2023-09-30T14:44:00;8.77;;;2.80;;
24761;SDS011;12865;51.934;10.330;2023-09-30T14:46:25;8.18;;;3.22;;
24761;SDS011;12865;51.934;10.330;2023-09-30T14:48:51;5.78;;;2.78;;
24761;SDS011;12865;51.934;10.330;2023-09-30T14:51:16;5.88;;;3.10;;
24761;SDS011;12865;51.934;10.330;2023-09-30T14:53:46;5.60;;;2.80;;
24761;SDS011;12865;51.934;10.330;2023-09-30T14:56:15;7.32;;;3.05;;